createdAt,value
2023-01-25T00:00:07.108Z,16.42
2023-01-25T00:05:10.178Z,16.52
2023-01-25T00:10:12.933Z,17.05
2023-01-25T00:15:16.571Z,17.08
2023-01-25T00:20:18.903Z,16.30
2023-01-25T00:25:21.021Z,17.00
2023-01-25T00:30:24.595Z,15.45
2023-01-25T00:35:32.490Z,15.15
2023-01-25T00:40:34.692Z,16.90
2023-01-25T00:45:38.262Z,17.48
2023-01-25T00:50:40.439Z,15.93
2023-01-25T00:55:42.590Z,15.95
2023-01-25T01:00:46.629Z,15.75
2023-01-25T01:05:48.895Z,18.83
2023-01-25T01:10:51.119Z,17.08
2023-01-25T01:15:54.893Z,20.35
2023-01-25T01:20:57.041Z,17.10
2023-01-25T01:26:01.572Z,17.50
2023-01-25T01:31:07.345Z,17.05
2023-01-25T01:36:10.453Z,17.58
2023-01-25T01:41:13.484Z,17.42
2023-01-25T01:46:22.419Z,16.50
2023-01-25T01:51:37.671Z,17.45
2023-01-25T01:56:43.780Z,16.05
2023-01-25T02:01:49.459Z,17.65
2023-01-25T02:06:57.081Z,18.02
2023-01-25T02:12:02.417Z,19.90
2023-01-25T02:17:09.415Z,19.00
2023-01-25T02:22:16.509Z,19.45
2023-01-25T02:27:21.025Z,15.73
2023-01-25T02:32:23.628Z,18.15
2023-01-25T02:37:26.034Z,19.20
2023-01-25T02:42:35.768Z,18.73
2023-01-25T02:47:38.037Z,18.35
2023-01-25T02:52:40.185Z,18.20
2023-01-25T02:57:44.042Z,19.50
2023-01-25T03:02:46.239Z,28.05
2023-01-25T03:07:48.437Z,21.20
2023-01-25T03:12:52.002Z,19.48
2023-01-25T03:17:54.345Z,21.65
2023-01-25T03:22:56.989Z,19.95
2023-01-25T03:28:00.630Z,21.90
2023-01-25T03:33:02.976Z,18.50
2023-01-25T03:38:07.291Z,18.83
2023-01-25T03:43:11.113Z,20.15
2023-01-25T03:48:16.366Z,17.50
2023-01-25T03:53:27.570Z,16.80
2023-01-25T03:58:32.512Z,19.35
2023-01-25T04:03:35.554Z,19.02
2023-01-25T04:08:37.958Z,19.77
2023-01-25T04:13:41.468Z,24.42
2023-01-25T04:18:43.585Z,21.55
2023-01-25T04:23:45.946Z,19.90
2023-01-25T04:28:50.386Z,21.58
2023-01-25T04:33:52.801Z,21.35
2023-01-25T04:38:55.422Z,22.33
2023-01-25T04:43:59.055Z,25.67
2023-01-25T04:49:01.296Z,25.90
2023-01-25T04:54:03.716Z,24.55
2023-01-25T04:59:07.638Z,20.77
2023-01-25T05:04:09.849Z,22.90
2023-01-25T05:09:12.200Z,23.13
2023-01-25T05:14:15.722Z,24.30
2023-01-25T05:19:17.893Z,26.15
2023-01-25T05:24:20.201Z,25.98
2023-01-25T05:29:26.984Z,25.08
2023-01-25T05:34:29.150Z,23.02
2023-01-25T05:39:31.297Z,24.20
2023-01-25T05:44:34.833Z,25.52
2023-01-25T05:49:37.021Z,26.48
2023-01-25T05:54:39.164Z,24.73
2023-01-25T05:59:42.736Z,24.13
2023-01-25T06:04:44.927Z,27.70
2023-01-25T06:09:47.084Z,24.90
2023-01-25T06:14:50.611Z,26.17
2023-01-25T06:19:52.771Z,28.80
2023-01-25T06:24:57.560Z,25.27
2023-01-25T06:30:01.149Z,25.08
2023-01-25T06:35:03.760Z,22.77
2023-01-25T06:40:11.380Z,23.45
2023-01-25T06:45:15.337Z,23.23
2023-01-25T06:50:17.768Z,21.05
2023-01-25T06:55:20.557Z,22.33
2023-01-25T07:00:24.669Z,22.33
2023-01-25T07:05:26.894Z,21.15
2023-01-25T07:10:29.096Z,21.48
2023-01-25T07:15:32.762Z,21.60
2023-01-25T07:20:35.374Z,23.10
2023-01-25T07:25:38.021Z,24.08
2023-01-25T07:30:44.128Z,21.65
2023-01-25T07:35:46.455Z,23.85
2023-01-25T07:40:53.369Z,20.75
2023-01-25T07:46:02.896Z,25.65
2023-01-25T07:51:22.855Z,21.63
2023-01-25T07:56:26.798Z,21.08
2023-01-25T08:01:35.206Z,21.05
2023-01-25T08:06:39.689Z,21.17
2023-01-25T08:11:43.198Z,24.73
2023-01-25T08:16:49.519Z,20.35
2023-01-25T08:21:51.632Z,27.38
2023-01-25T08:26:56.269Z,22.35
2023-01-25T08:32:00.483Z,22.80
2023-01-25T08:37:02.721Z,25.63
2023-01-25T08:42:04.936Z,19.35
2023-01-25T08:47:08.462Z,20.88
2023-01-25T08:52:14.637Z,19.90
2023-01-25T08:57:16.781Z,21.42
2023-01-25T09:02:21.770Z,21.02
2023-01-25T09:07:25.295Z,19.67
2023-01-25T09:12:27.714Z,18.13
2023-01-25T09:17:32.227Z,17.23
2023-01-25T09:22:34.807Z,20.67
2023-01-25T09:27:39.446Z,17.40
2023-01-25T09:32:43.071Z,16.50
2023-01-25T09:37:45.308Z,15.43
2023-01-25T09:43:01.797Z,16.45
2023-01-25T09:48:20.897Z,19.23
2023-01-25T09:53:34.658Z,16.85
2023-01-25T09:58:39.247Z,17.33
2023-01-25T10:03:48.945Z,20.52
2023-01-25T10:08:56.790Z,15.18
2023-01-25T10:14:00.186Z,14.75
2023-01-25T10:19:16.825Z,15.00
2023-01-25T10:24:50.034Z,15.38
2023-01-25T10:29:57.473Z,15.45
2023-01-25T10:35:29.170Z,16.85
2023-01-25T10:40:43.455Z,14.32
2023-01-25T10:45:45.837Z,16.42
2023-01-25T10:50:53.799Z,13.50
2023-01-25T10:56:02.076Z,13.23
2023-01-25T11:01:08.109Z,19.38
2023-01-25T11:06:13.889Z,15.30
2023-01-25T11:11:28.155Z,17.95
2023-01-25T11:16:37.389Z,15.45
2023-01-25T11:21:54.919Z,17.77
2023-01-25T11:27:19.270Z,15.55
2023-01-25T11:32:28.345Z,15.93
2023-01-25T11:37:41.892Z,14.90
2023-01-25T11:43:01.180Z,18.05
2023-01-25T11:48:26.250Z,21.40
2023-01-25T11:53:47.558Z,20.08
2023-01-25T11:59:10.018Z,20.20
2023-01-25T12:04:56.712Z,16.67
2023-01-25T12:10:11.025Z,24.30
2023-01-25T12:15:29.076Z,18.45
2023-01-25T12:20:43.929Z,19.10
2023-01-25T12:26:03.827Z,19.42
2023-01-25T12:31:13.504Z,20.83
2023-01-25T12:36:24.200Z,21.90
2023-01-25T12:41:34.622Z,25.08
2023-01-25T12:46:43.752Z,20.00
2023-01-25T12:51:47.297Z,20.30
2023-01-25T12:56:59.107Z,19.17
2023-01-25T13:02:14.771Z,21.02
2023-01-25T13:07:25.552Z,20.55
2023-01-25T13:12:29.456Z,21.77
2023-01-25T13:17:35.682Z,21.80
2023-01-25T13:23:02.168Z,21.50
2023-01-25T13:28:41.517Z,21.35
2023-01-25T13:33:43.691Z,23.55
2023-01-25T13:38:45.875Z,18.83
2023-01-25T13:44:09.839Z,21.67
2023-01-25T13:49:23.900Z,20.08
2023-01-25T13:54:26.385Z,24.60
2023-01-25T13:59:31.610Z,21.30
2023-01-25T14:04:37.359Z,20.70
2023-01-25T14:09:44.573Z,21.17
2023-01-25T14:14:49.668Z,21.10
2023-01-25T14:19:55.147Z,21.30
2023-01-25T14:25:12.952Z,22.05
2023-01-25T14:30:22.807Z,25.13
2023-01-25T14:35:54.168Z,20.45
2023-01-25T14:41:00.407Z,20.33
2023-01-25T14:46:20.485Z,22.38
2023-01-25T14:51:28.625Z,20.05
2023-01-25T14:56:36.184Z,19.42
2023-01-25T15:01:42.353Z,21.38
2023-01-25T15:06:49.299Z,23.30
2023-01-25T15:11:51.321Z,24.23
2023-01-25T15:16:56.022Z,22.17
2023-01-25T15:22:00.577Z,21.90
2023-01-25T15:27:03.446Z,22.45
2023-01-25T15:32:18.051Z,22.65
2023-01-25T15:37:20.255Z,24.15
2023-01-25T15:42:22.478Z,22.10
2023-01-25T15:47:28.614Z,18.55
2023-01-25T15:52:30.939Z,23.02
2023-01-25T15:57:39.287Z,22.30
2023-01-25T16:02:43.448Z,24.73
2023-01-25T16:07:46.975Z,23.70
2023-01-25T16:12:50.026Z,22.17
2023-01-25T16:17:53.895Z,24.85
2023-01-25T16:22:56.666Z,24.23
2023-01-25T16:27:59.673Z,24.58
2023-01-25T16:33:05.081Z,22.67
2023-01-25T16:38:08.008Z,20.75
2023-01-25T16:43:12.069Z,23.90
2023-01-25T16:48:17.067Z,25.30
2023-01-25T16:53:20.559Z,26.85
2023-01-25T16:58:23.412Z,24.17
2023-01-25T17:03:27.709Z,25.73
2023-01-25T17:08:31.214Z,25.92
2023-01-25T17:13:34.208Z,25.10
2023-01-25T17:18:38.958Z,25.73
2023-01-25T17:23:43.868Z,29.90
2023-01-25T17:28:47.469Z,27.75
2023-01-25T17:33:52.156Z,28.52
2023-01-25T17:38:55.323Z,26.98
2023-01-25T17:44:00.146Z,25.35
2023-01-25T17:49:06.909Z,25.80
2023-01-25T17:54:12.112Z,24.98
2023-01-25T17:59:15.762Z,24.98
2023-01-25T18:04:21.139Z,27.13
2023-01-25T18:09:25.844Z,25.58
2023-01-25T18:14:30.433Z,24.80
2023-01-25T18:19:36.390Z,23.77
2023-01-25T18:24:41.257Z,27.40
2023-01-25T18:29:53.215Z,26.67
2023-01-25T18:34:58.237Z,32.83
2023-01-25T18:40:01.684Z,27.45
2023-01-25T18:45:06.234Z,25.70
2023-01-25T18:50:14.529Z,30.33
2023-01-25T18:55:19.310Z,28.55
2023-01-25T19:00:23.669Z,34.00
2023-01-25T19:05:30.220Z,31.45
2023-01-25T19:10:36.802Z,30.48
2023-01-25T19:15:41.628Z,33.08
2023-01-25T19:20:47.018Z,33.42
2023-01-25T19:25:56.377Z,33.78
2023-01-25T19:31:10.437Z,32.35
2023-01-25T19:36:18.967Z,30.15
2023-01-25T19:41:25.858Z,36.05
2023-01-25T19:46:32.548Z,35.65
2023-01-25T19:51:42.450Z,33.78
2023-01-25T19:56:48.004Z,36.55
2023-01-25T20:01:51.836Z,36.22
2023-01-25T20:06:58.355Z,35.78
2023-01-25T20:12:06.459Z,35.60
2023-01-25T20:17:11.218Z,36.13
2023-01-25T20:22:22.028Z,35.20
2023-01-25T20:27:27.588Z,40.03
2023-01-25T20:32:33.616Z,38.40
2023-01-25T20:37:40.254Z,37.78
2023-01-25T20:42:44.447Z,43.67
2023-01-25T20:47:48.029Z,40.42
2023-01-25T20:52:53.974Z,40.00
2023-01-25T20:57:57.795Z,41.97
2023-01-25T21:03:01.324Z,39.58
2023-01-25T21:08:07.280Z,38.53
2023-01-25T21:13:11.491Z,39.65
2023-01-25T21:18:17.099Z,39.92
2023-01-25T21:23:23.395Z,41.63
2023-01-25T21:28:26.913Z,39.53
2023-01-25T21:33:30.336Z,40.78
2023-01-25T21:38:35.889Z,44.58
2023-01-25T21:43:52.830Z,41.30
2023-01-25T21:49:18.200Z,39.15
2023-01-25T21:54:24.023Z,44.03
2023-01-25T21:59:27.633Z,44.13
2023-01-25T22:04:30.306Z,44.45
2023-01-25T22:09:34.070Z,44.13
2023-01-25T22:14:36.747Z,42.72
2023-01-25T22:19:38.937Z,45.83
2023-01-25T22:24:42.554Z,45.85
2023-01-25T22:29:44.754Z,42.97
2023-01-25T22:34:46.914Z,39.65
2023-01-25T22:39:50.509Z,46.65
2023-01-25T22:44:53.312Z,41.30
2023-01-25T22:49:55.620Z,35.45
2023-01-25T22:54:59.222Z,42.92
2023-01-25T23:00:01.418Z,35.28
2023-01-25T23:05:03.633Z,35.00
2023-01-25T23:10:08.507Z,31.20
2023-01-25T23:15:15.502Z,34.33
2023-01-25T23:20:18.045Z,30.17
2023-01-25T23:25:24.492Z,30.05
2023-01-25T23:30:26.843Z,28.08
2023-01-25T23:35:29.294Z,24.95
2023-01-25T23:40:32.826Z,26.65
2023-01-25T23:45:35.027Z,24.13
2023-01-25T23:50:38.393Z,22.30
2023-01-25T23:55:41.963Z,25.50
